createdAt,value
2023-01-19T00:04:09.539Z,99592.50
2023-01-19T00:09:11.227Z,99597.94
2023-01-19T00:14:15.258Z,99595.47
2023-01-19T00:19:19.094Z,99618.25
2023-01-19T00:24:28.110Z,99613.97
2023-01-19T00:29:33.455Z,99627.16
2023-01-19T00:34:39.685Z,99621.22
2023-01-19T00:39:41.466Z,99627.47
2023-01-19T00:44:47.909Z,99636.53
2023-01-19T00:49:49.862Z,99610.28
2023-01-19T00:54:51.581Z,99625.97
2023-01-19T00:59:55.592Z,99630.44
2023-01-19T01:04:58.302Z,99623.50
2023-01-19T01:10:02.197Z,99619.88
2023-01-19T01:15:13.265Z,99646.75
2023-01-19T01:20:23.421Z,99643.16
2023-01-19T01:25:31.124Z,99648.44
2023-01-19T01:30:35.556Z,99651.06
2023-01-19T01:35:37.484Z,99676.66
2023-01-19T01:40:40.481Z,99656.66
2023-01-19T01:45:48.056Z,99666.53
2023-01-19T01:51:15.399Z,99670.19
2023-01-19T01:56:20.626Z,99696.59
2023-01-19T02:01:43.573Z,99662.41
2023-01-19T02:07:25.198Z,99666.06
2023-01-19T02:12:53.790Z,99680.91
2023-01-19T02:17:58.468Z,99677.59
2023-01-19T02:23:03.893Z,99670.50
2023-01-19T02:28:05.704Z,99666.19
2023-01-19T02:33:09.599Z,99668.16
2023-01-19T02:38:13.788Z,99682.03
2023-01-19T02:43:17.415Z,99669.00
2023-01-19T02:48:20.598Z,99670.31
2023-01-19T02:53:54.799Z,99677.38
2023-01-19T02:59:05.319Z,99679.19
2023-01-19T03:04:16.868Z,99683.66
2023-01-19T03:09:26.669Z,99679.19
2023-01-19T03:14:30.105Z,99678.69
2023-01-19T03:19:38.104Z,99672.75
2023-01-19T03:24:46.461Z,99677.03
2023-01-19T03:30:04.763Z,99672.53
2023-01-19T03:35:12.885Z,99696.41
2023-01-19T03:40:14.744Z,99689.91
2023-01-19T03:45:21.667Z,99703.44
2023-01-19T03:50:27.222Z,99706.88
2023-01-19T03:55:31.346Z,99705.25
2023-01-19T04:00:36.480Z,99713.44
2023-01-19T04:05:41.578Z,99711.81
2023-01-19T04:10:43.231Z,99711.28
2023-01-19T04:15:53.930Z,99717.69
2023-01-19T04:20:59.458Z,99725.75
2023-01-19T04:26:09.028Z,99721.47
2023-01-19T04:31:14.520Z,99732.69
2023-01-19T04:36:18.517Z,99744.91
2023-01-19T04:41:21.314Z,99751.53
2023-01-19T04:46:26.604Z,99749.88
2023-01-19T04:51:28.825Z,99768.34
2023-01-19T04:56:32.969Z,99772.63
2023-01-19T05:01:37.066Z,99756.97
2023-01-19T05:06:41.945Z,99758.75
2023-01-19T05:11:45.159Z,99772.81
2023-01-19T05:16:49.226Z,99776.41
2023-01-19T05:21:56.275Z,99786.00
2023-01-19T05:27:03.871Z,99783.34
2023-01-19T05:32:05.946Z,99783.63
2023-01-19T05:37:13.243Z,99797.97
2023-01-19T05:42:15.028Z,99794.66
2023-01-19T05:47:19.271Z,99796.75
2023-01-19T05:52:21.864Z,99802.34
2023-01-19T05:57:25.599Z,99805.94
2023-01-19T06:02:32.257Z,99818.31
2023-01-19T06:07:36.224Z,99819.44
2023-01-19T06:12:41.792Z,99823.28
2023-01-19T06:17:43.596Z,99827.31
2023-01-19T06:22:48.085Z,99844.53
2023-01-19T06:27:52.409Z,99841.88
2023-01-19T06:32:57.943Z,99852.16
2023-01-19T06:38:01.985Z,99851.09
2023-01-19T06:43:08.700Z,99855.31
2023-01-19T06:48:13.706Z,99868.63
2023-01-19T06:53:22.225Z,99869.50
2023-01-19T06:58:28.476Z,99868.63
2023-01-19T07:03:30.764Z,99879.88
2023-01-19T07:08:35.372Z,99886.81
2023-01-19T07:13:41.130Z,99893.88
2023-01-19T07:18:48.449Z,99894.19
2023-01-19T07:23:53.636Z,99897.66
2023-01-19T07:28:57.702Z,99917.78
2023-01-19T07:34:01.762Z,99920.25
2023-01-19T07:39:06.938Z,99929.84
2023-01-19T07:44:13.451Z,99941.22
2023-01-19T07:49:15.196Z,99956.78
2023-01-19T07:54:21.819Z,99953.81
2023-01-19T07:59:26.282Z,99950.88
2023-01-19T08:04:28.404Z,99945.59
2023-01-19T08:09:36.105Z,99943.03
2023-01-19T08:14:40.063Z,99950.56
2023-01-19T08:19:45.084Z,99960.19
2023-01-19T08:24:50.422Z,99973.78
2023-01-19T08:29:52.330Z,99969.50
2023-01-19T08:34:56.587Z,99974.34
2023-01-19T08:39:59.086Z,99985.56
2023-01-19T08:45:06.826Z,99982.69
2023-01-19T08:50:11.940Z,99991.19
2023-01-19T08:55:16.710Z,100002.03
2023-01-19T09:00:22.278Z,100003.00
2023-01-19T09:05:28.823Z,100013.28
2023-01-19T09:10:36.073Z,100013.56
2023-01-19T09:15:42.456Z,100025.78
2023-01-19T09:20:46.397Z,100023.44
2023-01-19T09:25:48.735Z,100031.03
2023-01-19T09:30:53.109Z,100036.81
2023-01-19T09:35:57.712Z,100045.00
2023-01-19T09:41:04.351Z,100043.91
2023-01-19T09:46:13.067Z,100054.66
2023-01-19T09:51:29.811Z,100057.06
2023-01-19T09:56:35.605Z,100065.75
2023-01-19T10:01:46.743Z,100087.25
2023-01-19T10:06:52.106Z,100077.41
2023-01-19T10:12:03.531Z,100095.22
2023-01-19T10:17:18.187Z,100109.44
2023-01-19T10:22:22.268Z,100122.91
2023-01-19T10:27:29.651Z,100126.09
2023-01-19T10:32:38.671Z,100130.06
2023-01-19T10:37:46.132Z,100131.50
2023-01-19T10:42:51.282Z,100129.38
2023-01-19T10:47:58.178Z,100127.88
2023-01-19T10:53:08.006Z,100127.38
2023-01-19T10:58:29.188Z,100131.72
2023-01-19T11:03:32.264Z,100134.44
2023-01-19T11:08:36.446Z,100140.88
2023-01-19T11:13:41.993Z,100140.19
2023-01-19T11:18:45.707Z,100143.38
2023-01-19T11:24:05.776Z,100139.81
2023-01-19T11:29:17.118Z,100146.81
2023-01-19T11:34:39.296Z,100149.97
2023-01-19T11:39:53.796Z,100149.13
2023-01-19T11:45:12.582Z,100157.16
2023-01-19T11:50:31.384Z,100149.56
2023-01-19T11:55:39.219Z,100162.97
2023-01-19T12:00:54.896Z,100171.78
2023-01-19T12:06:04.226Z,100185.31
2023-01-19T12:11:06.789Z,100182.91
2023-01-19T12:16:20.910Z,100183.44
2023-01-19T12:21:25.977Z,100182.38
2023-01-19T12:26:51.507Z,100185.03
2023-01-19T12:32:20.218Z,100186.94
2023-01-19T12:37:31.670Z,100190.28
2023-01-19T12:42:33.747Z,100194.44
2023-01-19T12:47:38.943Z,100192.69
2023-01-19T12:52:48.050Z,100201.44
2023-01-19T12:57:49.694Z,100205.69
2023-01-19T13:02:55.898Z,100209.50
2023-01-19T13:08:06.904Z,100217.97
2023-01-19T13:13:21.235Z,100215.72
2023-01-19T13:18:29.987Z,100214.66
2023-01-19T13:23:51.801Z,100237.13
2023-01-19T13:28:57.996Z,100237.56
2023-01-19T13:34:02.814Z,100241.53
2023-01-19T13:39:11.904Z,100244.44
2023-01-19T13:44:18.824Z,100245.16
2023-01-19T13:49:31.544Z,100258.88
2023-01-19T13:54:37.267Z,100278.22
2023-01-19T13:59:45.159Z,100286.88
2023-01-19T14:04:54.332Z,100290.66
2023-01-19T14:10:13.188Z,100287.38
2023-01-19T14:15:21.097Z,100301.53
2023-01-19T14:20:32.831Z,100306.91
2023-01-19T14:25:39.629Z,100317.97
2023-01-19T14:31:02.483Z,100319.25
2023-01-19T14:36:17.992Z,100329.94
2023-01-19T14:41:37.094Z,100337.50
2023-01-19T14:46:49.260Z,100341.41
2023-01-19T14:51:52.041Z,100344.75
2023-01-19T14:56:54.174Z,100346.22
2023-01-19T15:01:56.151Z,100350.44
2023-01-19T15:07:00.185Z,100362.75
2023-01-19T15:12:02.325Z,100374.88
2023-01-19T15:17:04.924Z,100372.63
2023-01-19T15:22:16.078Z,100373.81
2023-01-19T15:27:17.902Z,100386.22
2023-01-19T15:32:24.386Z,100387.84
2023-01-19T15:37:28.454Z,100389.91
2023-01-19T15:42:35.290Z,100394.34
2023-01-19T15:47:37.165Z,100395.91
2023-01-19T15:52:38.998Z,100409.16
2023-01-19T15:57:40.732Z,100421.31
2023-01-19T16:02:45.848Z,100415.06
2023-01-19T16:07:49.879Z,100426.06
2023-01-19T16:12:54.193Z,100435.97
2023-01-19T16:18:00.807Z,100445.69
2023-01-19T16:23:15.151Z,100447.34
2023-01-19T16:28:17.152Z,100461.63
2023-01-19T16:33:19.321Z,100458.44
2023-01-19T16:38:23.228Z,100458.19
2023-01-19T16:43:26.343Z,100469.72
2023-01-19T16:48:33.883Z,100482.09
2023-01-19T16:53:38.450Z,100482.78
2023-01-19T16:58:41.155Z,100480.00
2023-01-19T17:03:43.413Z,100483.47
2023-01-19T17:08:45.233Z,100491.34
2023-01-19T17:14:02.386Z,100496.00
2023-01-19T17:19:09.835Z,100486.78
2023-01-19T17:24:11.649Z,100496.63
2023-01-19T17:29:16.238Z,100493.31
2023-01-19T17:34:22.730Z,100487.72
2023-01-19T17:39:24.420Z,100503.66
2023-01-19T17:44:26.215Z,100512.78
2023-01-19T17:49:28.000Z,100512.34
2023-01-19T17:54:30.743Z,100520.78
2023-01-19T17:59:35.575Z,100526.19
2023-01-19T18:04:42.135Z,100527.66
2023-01-19T18:09:45.758Z,100535.84
2023-01-19T18:14:50.935Z,100538.72
2023-01-19T18:19:54.978Z,100537.97
2023-01-19T18:24:56.753Z,100544.56
2023-01-19T18:29:58.546Z,100546.88
2023-01-19T18:35:00.925Z,100543.31
2023-01-19T18:40:07.993Z,100548.09
2023-01-19T18:45:12.520Z,100549.91
2023-01-19T18:50:18.941Z,100556.28
2023-01-19T18:55:24.052Z,100564.69
2023-01-19T19:00:25.982Z,100565.63
2023-01-19T19:05:30.031Z,100567.59
2023-01-19T19:10:36.337Z,100566.72
2023-01-19T19:15:39.277Z,100572.00
2023-01-19T19:20:44.142Z,100587.41
2023-01-19T19:25:48.517Z,100582.69
2023-01-19T19:30:52.599Z,100595.84
2023-01-19T19:35:59.885Z,100596.56
2023-01-19T19:41:10.607Z,100610.91
2023-01-19T19:46:16.411Z,100629.78
2023-01-19T19:51:25.721Z,100631.31
2023-01-19T19:56:29.407Z,100632.28
2023-01-19T20:01:33.380Z,100640.69
2023-01-19T20:06:39.918Z,100641.06
2023-01-19T20:11:43.340Z,100654.22
2023-01-19T20:16:50.991Z,100661.28
2023-01-19T20:21:57.981Z,100671.03
2023-01-19T20:27:04.464Z,100668.97
2023-01-19T20:32:10.858Z,100673.06
2023-01-19T20:37:13.532Z,100685.41
2023-01-19T20:42:16.533Z,100683.94
2023-01-19T20:47:18.514Z,100693.03
2023-01-19T20:52:21.579Z,100706.78
2023-01-19T20:57:23.371Z,100709.06
2023-01-19T21:02:33.779Z,100717.44
2023-01-19T21:07:37.803Z,100738.25
2023-01-19T21:12:42.409Z,100739.44
2023-01-19T21:17:46.860Z,100746.97
2023-01-19T21:22:51.352Z,100754.81
2023-01-19T21:27:53.170Z,100761.00
2023-01-19T21:33:02.214Z,100765.50
2023-01-19T21:38:06.737Z,100761.50
2023-01-19T21:43:08.708Z,100780.50
2023-01-19T21:48:15.407Z,100780.41
2023-01-19T21:53:17.078Z,100775.88
2023-01-19T21:58:21.777Z,100776.06
2023-01-19T22:03:28.722Z,100773.97
2023-01-19T22:08:33.764Z,100787.31
2023-01-19T22:13:38.477Z,100785.31
2023-01-19T22:18:49.203Z,100787.94
2023-01-19T22:23:56.249Z,100791.63
2023-01-19T22:29:02.728Z,100799.72
2023-01-19T22:34:10.813Z,100811.81
2023-01-19T22:39:15.080Z,100810.34
2023-01-19T22:44:23.866Z,100808.19
2023-01-19T22:49:25.616Z,100806.22
2023-01-19T22:54:30.211Z,100810.72
2023-01-19T22:59:32.188Z,100817.91
2023-01-19T23:04:34.010Z,100819.47
2023-01-19T23:09:42.718Z,100806.84
2023-01-19T23:14:44.399Z,100812.47
2023-01-19T23:19:48.416Z,100808.97
2023-01-19T23:24:50.148Z,100812.00
2023-01-19T23:30:10.161Z,100818.47
2023-01-19T23:35:14.447Z,100825.19
2023-01-19T23:40:21.865Z,100825.19
2023-01-19T23:45:25.900Z,100839.41
2023-01-19T23:50:29.756Z,100856.25
2023-01-19T23:55:34.042Z,100851.44
